Time;durP1;ratioP1;P1;durP2;ratioP2;P2;SDS_P1;SDS_P2;PMS_P1;PMS_P2;Temp;Humidity;BMP_temperature;BMP_pressure;BME280_temperature;BME280_humidity;BME280_pressure;Samples;Min_cycle;Max_cycle;Signal;HPM_P1;HPM_P2
2022/07/29 00:00:03;;;;;;;12.20;2.13;;;;;;;;;;5051722;28;20588;-52
2022/07/29 00:02:29;;;;;;;2.50;1.83;;;;;;;;;;5052072;28;20434;-53
2022/07/29 00:04:55;;;;;;;2.83;2.10;;;;;;;;;;5051839;28;20397;-52
2022/07/29 00:07:21;;;;;;;2.00;1.90;;;;;;;;;;5051919;28;20521;-52
2022/07/29 00:09:47;;;;;;;3.60;2.10;;;;;;;;;;5051549;28;20501;-52
2022/07/29 00:12:13;;;;;;;6.93;2.60;;;;;;;;;;5051897;28;20430;-52
2022/07/29 00:14:39;;;;;;;2.33;1.80;;;;;;;;;;5048234;28;20483;-52
2022/07/29 00:17:05;;;;;;;4.47;2.23;;;;;;;;;;5051793;28;20406;-52
2022/07/29 00:19:31;;;;;;;6.70;2.77;;;;;;;;;;5051823;28;20457;-52
2022/07/29 00:21:57;;;;;;;3.23;1.80;;;;;;;;;;5051823;28;20402;-52
2022/07/29 00:24:23;;;;;;;3.23;1.90;;;;;;;;;;5051827;28;20402;-52
2022/07/29 00:26:49;;;;;;;5.83;2.27;;;;;;;;;;5051737;28;20381;-52
2022/07/29 00:29:15;;;;;;;2.53;1.87;;;;;;;;;;5051138;28;20425;-53
2022/07/29 00:31:41;;;;;;;2.40;1.70;;;;;;;;;;5051736;28;20889;-52
2022/07/29 00:35:43;;;;;;;2.93;1.90;;;;;;;;;;5051639;28;20405;-52
2022/07/29 00:36:53;;;;;;;2.60;2.00;;;;;;;;;;5051631;28;20785;-52
2022/07/29 00:39:19;;;;;;;2.87;2.03;;;;;;;;;;5051156;28;20486;-52
2022/07/29 00:41:45;;;;;;;5.07;2.60;;;;;;;;;;5051496;28;20389;-52
2022/07/29 00:44:11;;;;;;;7.00;2.43;;;;;;;;;;5049739;28;20433;-52
2022/07/29 00:46:37;;;;;;;4.03;2.00;;;;;;;;;;5047473;28;20526;-52
2022/07/29 00:49:03;;;;;;;4.80;3.30;;;;;;;;;;5051103;28;20427;-52
2022/07/29 00:51:29;;;;;;;3.80;2.27;;;;;;;;;;5051598;28;20893;-52
2022/07/29 00:53:55;;;;;;;4.07;2.60;;;;;;;;;;5051300;28;20437;-53
2022/07/29 00:56:21;;;;;;;12.67;2.30;;;;;;;;;;5051487;28;20413;-52
2022/07/29 00:58:48;;;;;;;2.37;2.03;;;;;;;;;;5050932;28;20469;-52
2022/07/29 01:01:14;;;;;;;2.90;2.03;;;;;;;;;;5051083;28;20401;-52
2022/07/29 01:03:40;;;;;;;3.00;2.23;;;;;;;;;;5050828;28;20451;-52
2022/07/29 01:06:06;;;;;;;4.40;2.13;;;;;;;;;;5050998;28;20867;-52
2022/07/29 01:08:33;;;;;;;2.90;2.33;;;;;;;;;;5051976;28;20411;-52
2022/07/29 01:11:00;;;;;;;1.93;1.83;;;;;;;;;;5055169;28;20867;-52
2022/07/29 01:13:26;;;;;;;5.80;2.67;;;;;;;;;;5054769;28;20409;-53
2022/07/29 01:15:57;;;;;;;2.00;1.87;;;;;;;;;;5050861;28;20446;-52
2022/07/29 01:18:40;;;;;;;2.40;2.13;;;;;;;;;;5054067;28;20423;-52
2022/07/29 01:21:16;;;;;;;5.43;2.30;;;;;;;;;;5054829;28;20372;-52
2022/07/29 01:23:54;;;;;;;5.93;2.13;;;;;;;;;;5054829;28;20503;-51
2022/07/29 01:26:42;;;;;;;2.13;1.80;;;;;;;;;;5054730;28;20368;-52
2022/07/29 01:29:19;;;;;;;2.13;1.87;;;;;;;;;;5054543;28;20426;-52
2022/07/29 01:31:47;;;;;;;3.10;2.50;;;;;;;;;;5054465;28;20436;-52
2022/07/29 01:34:18;;;;;;;2.93;2.60;;;;;;;;;;5054671;28;20404;-53
2022/07/29 01:36:47;;;;;;;2.10;2.00;;;;;;;;;;5054449;28;20451;-52
2022/07/29 01:39:17;;;;;;;3.23;2.27;;;;;;;;;;5053914;28;20459;-52
2022/07/29 01:41:50;;;;;;;2.20;2.00;;;;;;;;;;5054512;28;20406;-52
2022/07/29 01:44:19;;;;;;;4.70;2.47;;;;;;;;;;5054363;28;20378;-52
2022/07/29 01:46:49;;;;;;;4.63;1.83;;;;;;;;;;5051118;28;20903;-52
2022/07/29 01:49:17;;;;;;;3.20;1.97;;;;;;;;;;5052500;28;20449;-52
2022/07/29 01:51:57;;;;;;;4.00;2.27;;;;;;;;;;5053954;28;20478;-52
2022/07/29 01:54:29;;;;;;;2.50;2.20;;;;;;;;;;5054523;28;20404;-52
2022/07/29 01:56:56;;;;;;;3.30;1.97;;;;;;;;;;5054042;28;20416;-53
2022/07/29 01:59:23;;;;;;;2.47;1.80;;;;;;;;;;5053394;28;20556;-51
2022/07/29 02:01:51;;;;;;;6.47;2.03;;;;;;;;;;5053925;28;20425;-53
2022/07/29 02:04:18;;;;;;;3.77;2.10;;;;;;;;;;5054101;28;20375;-51
2022/07/29 02:06:44;;;;;;;2.07;1.90;;;;;;;;;;5054161;28;20432;-53
2022/07/29 02:09:12;;;;;;;5.93;2.10;;;;;;;;;;5053530;28;20772;-52
2022/07/29 02:11:39;;;;;;;4.70;1.90;;;;;;;;;;5054147;28;20411;-52
2022/07/29 02:14:06;;;;;;;3.13;2.80;;;;;;;;;;5052588;28;20457;-52
2022/07/29 02:16:33;;;;;;;3.97;2.17;;;;;;;;;;5052817;28;20444;-52
2022/07/29 02:19:01;;;;;;;2.20;2.00;;;;;;;;;;5053358;28;20453;-52
2022/07/29 02:21:28;;;;;;;10.43;2.20;;;;;;;;;;5054040;28;20932;-52
2022/07/29 02:23:55;;;;;;;4.43;2.13;;;;;;;;;;5053909;28;20398;-52
2022/07/29 02:26:23;;;;;;;2.47;2.07;;;;;;;;;;5053546;28;20941;-51
2022/07/29 02:28:50;;;;;;;6.43;2.13;;;;;;;;;;5053260;28;20502;-52
2022/07/29 02:31:17;;;;;;;4.93;2.13;;;;;;;;;;5053583;28;20385;-51
2022/07/29 02:33:43;;;;;;;3.50;1.90;;;;;;;;;;5053634;28;20524;-51
2022/07/29 02:36:09;;;;;;;5.07;2.50;;;;;;;;;;5053214;28;20964;-51
2022/07/29 02:38:51;;;;;;;3.23;1.87;;;;;;;;;;5052912;28;20504;-51
2022/07/29 02:41:33;;;;;;;4.90;1.70;;;;;;;;;;5053249;28;20397;-51
2022/07/29 02:44:10;;;;;;;4.83;2.10;;;;;;;;;;5048843;28;20425;-52
2022/07/29 02:46:37;;;;;;;2.17;1.90;;;;;;;;;;5053215;28;20384;-51
2022/07/29 02:49:07;;;;;;;2.40;1.97;;;;;;;;;;5052772;28;20420;-51
2022/07/29 02:51:44;;;;;;;2.27;2.10;;;;;;;;;;5053104;28;20413;-52
2022/07/29 02:54:10;;;;;;;5.33;2.40;;;;;;;;;;5053034;28;20420;-51
2022/07/29 02:56:37;;;;;;;1.83;1.70;;;;;;;;;;5052811;28;20782;-52
2022/07/29 02:59:06;;;;;;;3.40;2.00;;;;;;;;;;5052463;28;20802;-52
2022/07/29 03:01:33;;;;;;;7.90;1.83;;;;;;;;;;5052759;28;20929;-52
2022/07/29 03:04:01;;;;;;;3.00;1.80;;;;;;;;;;5052829;28;20479;-51
2022/07/29 03:06:27;;;;;;;2.40;2.20;;;;;;;;;;5052577;28;20372;-52
2022/07/29 03:08:54;;;;;;;2.23;1.70;;;;;;;;;;5052214;28;20407;-52
2022/07/29 03:11:20;;;;;;;4.70;2.37;;;;;;;;;;5052676;28;20410;-52
2022/07/29 03:13:46;;;;;;;5.00;3.73;;;;;;;;;;5048959;28;20405;-52
2022/07/29 03:16:12;;;;;;;4.40;1.80;;;;;;;;;;5051165;28;20436;-51
2022/07/29 03:18:38;;;;;;;3.70;1.97;;;;;;;;;;5052063;28;20505;-52
2022/07/29 03:21:04;;;;;;;2.50;2.10;;;;;;;;;;5052336;28;20382;-52
2022/07/29 03:23:30;;;;;;;5.13;2.20;;;;;;;;;;5052284;28;20453;-52
2022/07/29 03:25:57;;;;;;;1.77;1.67;;;;;;;;;;5052351;28;20396;-51
2022/07/29 03:28:23;;;;;;;2.00;1.90;;;;;;;;;;5051816;28;21022;-52
2022/07/29 03:30:49;;;;;;;4.80;2.23;;;;;;;;;;5052005;28;20403;-51
2022/07/29 03:33:15;;;;;;;3.30;2.23;;;;;;;;;;5052224;28;20490;-52
2022/07/29 03:35:42;;;;;;;6.67;2.10;;;;;;;;;;5052131;28;20394;-52
2022/07/29 03:38:08;;;;;;;6.60;2.10;;;;;;;;;;5051876;28;20431;-52
2022/07/29 03:40:37;;;;;;;2.50;2.30;;;;;;;;;;5050274;28;20483;-52
2022/07/29 03:43:03;;;;;;;5.27;2.10;;;;;;;;;;5052166;28;20391;-53
2022/07/29 03:45:31;;;;;;;4.60;1.97;;;;;;;;;;5047403;28;20427;-51
2022/07/29 03:47:59;;;;;;;3.33;2.27;;;;;;;;;;5051921;28;20413;-53
2022/07/29 03:50:25;;;;;;;2.60;1.80;;;;;;;;;;5051266;28;20739;-53
2022/07/29 03:52:51;;;;;;;3.57;1.73;;;;;;;;;;5051932;28;20400;-52
2022/07/29 03:55:17;;;;;;;2.70;1.70;;;;;;;;;;5051933;28;20407;-51
2022/07/29 03:57:44;;;;;;;2.00;1.83;;;;;;;;;;5051740;28;20453;-52
2022/07/29 04:00:11;;;;;;;3.73;2.00;;;;;;;;;;5051523;28;20459;-52
2022/07/29 04:02:38;;;;;;;6.77;2.47;;;;;;;;;;5052032;28;20404;-51
2022/07/29 04:05:04;;;;;;;4.90;2.43;;;;;;;;;;5053090;28;20426;-51
2022/07/29 04:07:30;;;;;;;3.67;2.40;;;;;;;;;;5052027;28;20423;-53
2022/07/29 04:09:56;;;;;;;2.90;2.50;;;;;;;;;;5051532;28;20887;-51
2022/07/29 04:12:22;;;;;;;3.27;2.00;;;;;;;;;;5051744;28;20373;-51
2022/07/29 04:14:49;;;;;;;2.40;2.03;;;;;;;;;;5047235;28;20871;-51
2022/07/29 04:17:15;;;;;;;5.27;3.23;;;;;;;;;;5051766;28;20891;-52
2022/07/29 04:19:41;;;;;;;3.20;2.30;;;;;;;;;;5051349;28;20454;-52
2022/07/29 04:22:07;;;;;;;8.47;2.20;;;;;;;;;;5051924;28;20903;-52
2022/07/29 04:24:33;;;;;;;3.97;2.03;;;;;;;;;;5051872;28;21104;-51
2022/07/29 04:26:59;;;;;;;2.90;1.93;;;;;;;;;;5052047;28;20386;-52
2022/07/29 04:29:25;;;;;;;2.40;2.20;;;;;;;;;;5051589;28;20422;-52
2022/07/29 04:31:51;;;;;;;4.17;2.40;;;;;;;;;;5051665;28;20828;-51
2022/07/29 04:34:17;;;;;;;4.40;2.07;;;;;;;;;;5051953;28;20403;-51
2022/07/29 04:36:43;;;;;;;2.77;2.13;;;;;;;;;;5052032;28;20398;-51
2022/07/29 04:39:10;;;;;;;2.67;2.20;;;;;;;;;;5051259;28;20467;-51
2022/07/29 04:41:36;;;;;;;6.60;1.97;;;;;;;;;;5051622;28;20465;-51
2022/07/29 04:44:04;;;;;;;3.33;2.60;;;;;;;;;;5048774;28;20431;-51
2022/07/29 04:46:30;;;;;;;3.77;2.37;;;;;;;;;;5055515;28;20380;-51
2022/07/29 04:48:56;;;;;;;2.70;2.10;;;;;;;;;;5055002;28;20400;-51
2022/07/29 04:51:22;;;;;;;2.67;2.00;;;;;;;;;;5054986;28;20402;-51
2022/07/29 04:53:48;;;;;;;3.13;1.70;;;;;;;;;;5055880;28;20400;-52
2022/07/29 04:56:14;;;;;;;2.33;2.13;;;;;;;;;;5055584;28;20402;-51
2022/07/29 04:58:40;;;;;;;1.80;1.70;;;;;;;;;;5054744;28;20816;-51
2022/07/29 05:01:06;;;;;;;4.50;2.80;;;;;;;;;;5055338;28;20394;-52
2022/07/29 05:03:32;;;;;;;4.70;2.03;;;;;;;;;;5055161;28;20618;-52
2022/07/29 05:05:58;;;;;;;3.83;2.47;;;;;;;;;;5054993;28;20544;-51
2022/07/29 05:08:24;;;;;;;9.90;2.80;;;;;;;;;;5054925;28;20430;-51
2022/07/29 05:10:50;;;;;;;7.10;3.37;;;;;;;;;;5055801;28;20428;-51
2022/07/29 05:13:16;;;;;;;4.70;2.33;;;;;;;;;;5056304;28;20406;-51
2022/07/29 05:15:42;;;;;;;3.77;2.13;;;;;;;;;;5050011;28;20409;-51
2022/07/29 05:18:08;;;;;;;3.70;3.00;;;;;;;;;;5055454;28;20396;-51
2022/07/29 05:20:34;;;;;;;4.17;2.40;;;;;;;;;;5054781;28;20376;-51
2022/07/29 05:23:01;;;;;;;3.00;2.70;;;;;;;;;;5055236;28;20395;-51
2022/07/29 05:25:27;;;;;;;3.57;2.60;;;;;;;;;;5054975;28;20426;-52
2022/07/29 05:27:54;;;;;;;4.13;2.23;;;;;;;;;;5054650;28;20424;-51
2022/07/29 05:30:20;;;;;;;8.80;3.30;;;;;;;;;;5054311;28;20384;-51
2022/07/29 05:32:46;;;;;;;8.37;2.57;;;;;;;;;;5054415;28;20460;-52
2022/07/29 05:35:13;;;;;;;2.53;2.33;;;;;;;;;;5054399;28;20446;-51
2022/07/29 05:37:39;;;;;;;4.13;2.10;;;;;;;;;;5054208;28;20443;-51
2022/07/29 05:40:05;;;;;;;2.50;2.33;;;;;;;;;;5053883;28;20948;-52
2022/07/29 05:42:31;;;;;;;2.93;2.60;;;;;;;;;;5054252;28;20404;-52
2022/07/29 05:44:57;;;;;;;3.90;2.73;;;;;;;;;;5049640;28;20499;-52
2022/07/29 05:47:23;;;;;;;3.50;2.90;;;;;;;;;;5054017;28;20418;-51
2022/07/29 05:49:50;;;;;;;3.83;2.60;;;;;;;;;;5053734;28;20864;-52
2022/07/29 05:52:16;;;;;;;3.10;2.60;;;;;;;;;;5054119;28;20428;-53
2022/07/29 05:54:42;;;;;;;4.33;2.37;;;;;;;;;;5033210;28;20390;-52
2022/07/29 05:57:08;;;;;;;4.17;2.73;;;;;;;;;;5033429;28;20836;-52
2022/07/29 05:59:37;;;;;;;3.07;2.80;;;;;;;;;;5032924;28;20538;-53
2022/07/29 06:02:04;;;;;;;8.50;2.90;;;;;;;;;;5033411;28;20451;-52
2022/07/29 06:04:31;;;;;;;5.40;3.60;;;;;;;;;;5033782;28;20394;-52
2022/07/29 06:06:57;;;;;;;2.77;2.57;;;;;;;;;;5034198;28;21093;-53
2022/07/29 06:09:23;;;;;;;5.20;3.40;;;;;;;;;;5032447;28;20498;-52
2022/07/29 06:11:49;;;;;;;3.50;3.20;;;;;;;;;;5033194;28;20415;-52
2022/07/29 06:14:15;;;;;;;8.93;4.00;;;;;;;;;;5036384;28;20451;-52
2022/07/29 06:16:41;;;;;;;4.37;2.63;;;;;;;;;;5052951;28;20761;-52
2022/07/29 06:19:07;;;;;;;5.60;2.83;;;;;;;;;;5052380;28;20881;-52
2022/07/29 06:21:33;;;;;;;4.60;3.73;;;;;;;;;;5035118;28;20451;-52
2022/07/29 06:24:00;;;;;;;3.80;3.10;;;;;;;;;;5032321;28;20453;-51
2022/07/29 06:26:26;;;;;;;4.80;2.90;;;;;;;;;;5035351;28;20414;-51
2022/07/29 06:28:52;;;;;;;4.93;3.30;;;;;;;;;;5033973;28;20816;-51
2022/07/29 06:31:18;;;;;;;7.93;3.50;;;;;;;;;;5031576;28;20991;-52
2022/07/29 06:33:44;;;;;;;3.43;3.10;;;;;;;;;;5032274;28;20397;-52
2022/07/29 06:36:11;;;;;;;3.57;3.27;;;;;;;;;;5034220;28;20794;-52
2022/07/29 06:38:38;;;;;;;4.20;2.97;;;;;;;;;;5032811;28;20453;-51
2022/07/29 06:41:05;;;;;;;6.10;3.13;;;;;;;;;;5032941;28;20402;-52
2022/07/29 06:43:40;;;;;;;4.13;3.10;;;;;;;;;;5032097;28;20457;-52
2022/07/29 06:46:08;;;;;;;3.57;3.27;;;;;;;;;;5018633;28;20893;-51
2022/07/29 06:48:38;;;;;;;6.87;3.47;;;;;;;;;;5043807;28;20470;-51
2022/07/29 06:51:05;;;;;;;3.77;3.47;;;;;;;;;;5032710;28;20395;-51
2022/07/29 06:53:32;;;;;;;8.53;3.20;;;;;;;;;;5031211;28;20414;-52
2022/07/29 06:55:59;;;;;;;3.30;3.00;;;;;;;;;;5032704;28;20478;-51
2022/07/29 06:58:25;;;;;;;7.17;3.60;;;;;;;;;;5031622;28;21051;-52
2022/07/29 07:00:51;;;;;;;3.80;2.93;;;;;;;;;;5032534;28;20412;-52
2022/07/29 07:03:18;;;;;;;3.83;3.20;;;;;;;;;;5032250;28;20425;-52
2022/07/29 07:05:44;;;;;;;6.67;3.30;;;;;;;;;;5032234;28;20403;-51
2022/07/29 07:08:10;;;;;;;9.10;3.40;;;;;;;;;;5032020;28;20854;-52
2022/07/29 07:10:36;;;;;;;6.20;3.27;;;;;;;;;;5032287;28;20897;-52
2022/07/29 07:13:02;;;;;;;3.90;2.70;;;;;;;;;;5032266;28;20454;-52
2022/07/29 07:15:28;;;;;;;6.80;3.00;;;;;;;;;;5052285;28;20480;-51
2022/07/29 07:20:34;;;;;;;4.50;3.25;;;;;;;;;;5774989;22;20461;-51
2022/07/29 07:23:00;;;;;;;6.57;3.30;;;;;;;;;;4988665;28;20222;-52
2022/07/29 07:25:26;;;;;;;6.53;2.90;;;;;;;;;;4977358;28;20929;-52
2022/07/29 07:27:52;;;;;;;5.20;3.07;;;;;;;;;;4979945;28;20868;-52
2022/07/29 07:30:18;;;;;;;2.87;2.67;;;;;;;;;;4997437;28;20465;-50
2022/07/29 07:32:44;;;;;;;4.20;2.70;;;;;;;;;;5011851;28;20463;-51
2022/07/29 07:35:10;;;;;;;7.77;2.77;;;;;;;;;;5011570;28;20446;-51
2022/07/29 07:37:37;;;;;;;2.53;2.33;;;;;;;;;;5012699;28;20425;-52
2022/07/29 07:40:03;;;;;;;2.93;2.53;;;;;;;;;;5011291;28;20601;-51
2022/07/29 07:42:29;;;;;;;8.67;2.90;;;;;;;;;;5012184;28;20439;-51
2022/07/29 07:44:55;;;;;;;4.90;2.97;;;;;;;;;;5012382;28;20574;-52
2022/07/29 07:47:23;;;;;;;8.37;3.07;;;;;;;;;;5012159;28;20412;-51
2022/07/29 07:49:49;;;;;;;3.63;2.20;;;;;;;;;;5010416;28;20449;-51
2022/07/29 07:52:16;;;;;;;5.00;2.33;;;;;;;;;;5011702;28;20986;-51
2022/07/29 07:54:45;;;;;;;3.90;2.87;;;;;;;;;;5012698;28;20890;-51
2022/07/29 07:57:11;;;;;;;5.00;2.70;;;;;;;;;;5012443;28;20775;-52
2022/07/29 07:59:38;;;;;;;8.37;3.23;;;;;;;;;;5011234;28;20465;-52
2022/07/29 08:02:04;;;;;;;6.60;2.90;;;;;;;;;;5011690;28;20409;-52
2022/07/29 08:04:30;;;;;;;3.10;2.70;;;;;;;;;;5011890;28;20428;-52
2022/07/29 08:06:57;;;;;;;6.50;2.80;;;;;;;;;;5012125;28;20437;-51
2022/07/29 08:09:23;;;;;;;12.73;2.40;;;;;;;;;;5010842;28;20713;-53
2022/07/29 08:11:49;;;;;;;2.83;2.37;;;;;;;;;;5010692;28;20460;-51
2022/07/29 08:14:15;;;;;;;3.50;2.43;;;;;;;;;;5011923;28;20419;-52
2022/07/29 08:16:42;;;;;;;4.60;2.13;;;;;;;;;;5010607;28;20488;-51
2022/07/29 08:19:08;;;;;;;3.10;2.57;;;;;;;;;;5015557;28;20972;-52
2022/07/29 08:21:34;;;;;;;6.00;3.13;;;;;;;;;;5015183;28;20430;-51
2022/07/29 08:26:45;;;;;;;2.87;2.67;;;;;;;;;;5015670;28;20406;-51
2022/07/29 08:29:11;;;;;;;4.40;3.07;;;;;;;;;;5015658;28;20404;-52
2022/07/29 08:31:37;;;;;;;2.20;2.00;;;;;;;;;;5014869;28;20429;-51
2022/07/29 08:34:04;;;;;;;3.23;2.90;;;;;;;;;;5015567;28;20776;-52
2022/07/29 08:36:30;;;;;;;3.27;2.70;;;;;;;;;;5015182;28;20754;-52
2022/07/29 08:38:56;;;;;;;3.00;2.50;;;;;;;;;;5014645;28;20469;-52
2022/07/29 08:41:23;;;;;;;5.47;2.80;;;;;;;;;;5014831;28;20951;-53
2022/07/29 08:43:49;;;;;;;3.57;2.40;;;;;;;;;;5015198;28;20427;-51
2022/07/29 08:46:16;;;;;;;3.60;2.73;;;;;;;;;;5015687;28;20401;-52
2022/07/29 08:48:42;;;;;;;3.60;2.50;;;;;;;;;;5015005;28;20439;-52
2022/07/29 08:51:09;;;;;;;3.30;3.00;;;;;;;;;;5014369;28;20517;-52
2022/07/29 08:53:37;;;;;;;3.87;2.87;;;;;;;;;;5015436;28;20407;-51
2022/07/29 08:56:04;;;;;;;4.27;2.60;;;;;;;;;;5014867;28;20425;-52
2022/07/29 08:58:32;;;;;;;5.97;2.70;;;;;;;;;;5015220;28;20462;-52
2022/07/29 09:01:01;;;;;;;2.90;2.53;;;;;;;;;;5013166;28;20442;-52
2022/07/29 09:03:30;;;;;;;2.90;2.27;;;;;;;;;;5014486;28;20465;-51
2022/07/29 09:05:56;;;;;;;3.67;2.83;;;;;;;;;;5014399;28;20426;-51
2022/07/29 09:08:22;;;;;;;5.20;3.10;;;;;;;;;;5015093;28;20402;-53
2022/07/29 09:10:49;;;;;;;2.83;2.47;;;;;;;;;;5014170;28;20440;-53
2022/07/29 09:13:15;;;;;;;8.13;2.87;;;;;;;;;;5015169;28;20834;-52
2022/07/29 09:15:40;;;;;;;5.03;2.70;;;;;;;;;;5014978;28;20501;-52
2022/07/29 09:18:06;;;;;;;3.27;2.30;;;;;;;;;;5014795;28;20399;-52
2022/07/29 09:23:17;;;;;;;5.50;3.20;;;;;;;;;;5011828;28;20488;-52
2022/07/29 09:25:43;;;;;;;2.80;2.30;;;;;;;;;;5006011;28;20422;-52
2022/07/29 09:28:17;;;;;;;3.63;2.37;;;;;;;;;;5014898;28;20399;-52
2022/07/29 09:30:52;;;;;;;2.90;2.37;;;;;;;;;;5012502;28;20949;-51
2022/07/29 09:33:19;;;;;;;5.40;2.33;;;;;;;;;;5014566;28;20473;-52
2022/07/29 09:35:45;;;;;;;3.23;2.20;;;;;;;;;;5014204;28;20928;-53
2022/07/29 09:38:12;;;;;;;4.50;2.20;;;;;;;;;;5014858;28;20429;-52
2022/07/29 09:40:38;;;;;;;3.63;2.40;;;;;;;;;;5013568;28;20439;-51
2022/07/29 09:43:11;;;;;;;6.07;2.90;;;;;;;;;;5014827;28;20468;-52
2022/07/29 09:45:37;;;;;;;4.47;3.10;;;;;;;;;;5013432;28;20411;-52
2022/07/29 09:48:22;;;;;;;4.30;2.50;;;;;;;;;;5013792;28;20438;-52
2022/07/29 09:50:49;;;;;;;4.40;2.43;;;;;;;;;;5012740;28;21005;-53
2022/07/29 09:53:34;;;;;;;2.77;2.57;;;;;;;;;;5014218;28;20430;-52
2022/07/29 09:56:00;;;;;;;2.90;2.57;;;;;;;;;;5014101;28;20430;-52
2022/07/29 09:58:26;;;;;;;4.40;2.40;;;;;;;;;;5014129;28;20403;-53
2022/07/29 10:00:53;;;;;;;2.90;2.70;;;;;;;;;;5010266;28;20469;-53
2022/07/29 10:03:19;;;;;;;4.30;2.47;;;;;;;;;;5014180;28;20410;-53
2022/07/29 10:05:45;;;;;;;3.83;2.80;;;;;;;;;;5010815;28;20452;-51
2022/07/29 10:08:12;;;;;;;12.73;3.30;;;;;;;;;;5007798;28;20415;-49
2022/07/29 10:10:42;;;;;;;4.27;3.10;;;;;;;;;;5012690;28;20446;-50
2022/07/29 10:13:13;;;;;;;5.27;3.73;;;;;;;;;;5013307;28;20423;-49
2022/07/29 10:15:44;;;;;;;3.00;2.70;;;;;;;;;;5014011;28;20496;-51
2022/07/29 10:18:11;;;;;;;8.80;3.27;;;;;;;;;;5014309;28;20422;-49
2022/07/29 10:20:38;;;;;;;4.70;2.57;;;;;;;;;;5013903;28;20433;-51
2022/07/29 10:23:05;;;;;;;3.70;3.00;;;;;;;;;;5014706;28;20805;-50
2022/07/29 10:25:31;;;;;;;5.20;3.63;;;;;;;;;;5014910;28;20522;-50
2022/07/29 10:27:57;;;;;;;5.43;2.73;;;;;;;;;;5011668;28;20414;-49
2022/07/29 10:30:24;;;;;;;7.80;3.00;;;;;;;;;;5013358;28;20424;-50
2022/07/29 10:32:50;;;;;;;6.43;2.83;;;;;;;;;;5014355;28;20920;-50
2022/07/29 10:35:27;;;;;;;5.20;3.00;;;;;;;;;;5014010;28;20416;-52
2022/07/29 10:37:53;;;;;;;7.93;3.60;;;;;;;;;;5013700;28;20407;-51
2022/07/29 10:43:15;;;;;;;4.50;2.90;;;;;;;;;;5013441;28;20406;-49
2022/07/29 10:45:41;;;;;;;4.53;3.13;;;;;;;;;;5014129;28;20826;-50
2022/07/29 10:48:07;;;;;;;5.47;2.90;;;;;;;;;;5014016;28;20468;-50
2022/07/29 10:50:52;;;;;;;6.63;3.23;;;;;;;;;;5012806;28;20438;-49
2022/07/29 10:53:18;;;;;;;3.17;2.87;;;;;;;;;;5014004;28;20402;-49
2022/07/29 10:55:46;;;;;;;4.10;3.37;;;;;;;;;;5014170;28;20402;-51
2022/07/29 10:58:13;;;;;;;5.00;3.80;;;;;;;;;;5013762;28;20413;-50
2022/07/29 11:00:39;;;;;;;5.03;3.97;;;;;;;;;;5012597;28;20453;-50
2022/07/29 11:03:05;;;;;;;5.23;4.50;;;;;;;;;;5014083;28;20757;-52
2022/07/29 11:05:51;;;;;;;3.57;3.27;;;;;;;;;;5013292;28;20423;-50
2022/07/29 11:08:19;;;;;;;3.70;3.40;;;;;;;;;;5012805;28;20446;-50
2022/07/29 11:10:45;;;;;;;5.90;3.90;;;;;;;;;;5012459;28;20958;-52
2022/07/29 11:13:11;;;;;;;4.30;3.77;;;;;;;;;;5013451;28;20975;-51
2022/07/29 11:15:57;;;;;;;8.37;3.40;;;;;;;;;;5010966;28;20935;-51
2022/07/29 11:18:23;;;;;;;4.47;3.70;;;;;;;;;;4993959;28;20447;-48
2022/07/29 11:20:50;;;;;;;3.97;2.93;;;;;;;;;;4992742;28;20441;-50
2022/07/29 11:23:26;;;;;;;7.30;3.70;;;;;;;;;;5012934;28;20443;-51
2022/07/29 11:26:10;;;;;;;5.03;4.60;;;;;;;;;;4993437;28;20405;-50
2022/07/29 11:28:40;;;;;;;4.83;4.43;;;;;;;;;;4995052;28;20437;-49
2022/07/29 11:31:07;;;;;;;4.30;3.47;;;;;;;;;;4993350;28;20440;-51
2022/07/29 11:33:34;;;;;;;4.63;3.80;;;;;;;;;;4996450;28;20508;-51
2022/07/29 11:36:14;;;;;;;7.93;3.17;;;;;;;;;;5012256;28;20987;-51
2022/07/29 11:38:40;;;;;;;4.03;3.43;;;;;;;;;;5012795;28;20470;-50
2022/07/29 11:41:26;;;;;;;3.67;3.07;;;;;;;;;;5012383;28;20519;-51
2022/07/29 11:43:53;;;;;;;3.57;2.83;;;;;;;;;;4993660;28;20414;-49
2022/07/29 11:46:39;;;;;;;7.80;3.57;;;;;;;;;;4996291;28;20397;-49
2022/07/29 11:49:05;;;;;;;7.00;3.13;;;;;;;;;;5012880;28;20417;-49
2022/07/29 11:51:31;;;;;;;11.33;3.90;;;;;;;;;;5012325;28;20440;-49
2022/07/29 11:53:58;;;;;;;5.37;3.50;;;;;;;;;;5013238;28;20499;-49
2022/07/29 11:56:26;;;;;;;4.73;3.43;;;;;;;;;;5013465;28;20464;-50
2022/07/29 11:59:01;;;;;;;3.73;3.40;;;;;;;;;;5012517;28;20451;-49
2022/07/29 12:01:27;;;;;;;4.40;3.17;;;;;;;;;;5012381;28;20476;-52
2022/07/29 12:04:02;;;;;;;3.50;3.20;;;;;;;;;;5013154;28;20888;-49
2022/07/29 12:06:28;;;;;;;5.07;3.77;;;;;;;;;;5012274;28;20484;-51
2022/07/29 12:08:54;;;;;;;3.43;2.90;;;;;;;;;;5012170;28;20430;-50
2022/07/29 12:11:20;;;;;;;6.17;3.30;;;;;;;;;;5012196;28;20913;-51
2022/07/29 12:13:46;;;;;;;3.40;3.07;;;;;;;;;;5013007;28;20407;-50
2022/07/29 12:16:12;;;;;;;3.77;2.77;;;;;;;;;;5012669;28;20805;-52
2022/07/29 12:18:38;;;;;;;5.10;2.90;;;;;;;;;;5012428;28;20453;-49
2022/07/29 12:21:04;;;;;;;4.53;3.20;;;;;;;;;;5011875;28;20851;-49
2022/07/29 12:23:31;;;;;;;2.80;2.50;;;;;;;;;;5012206;28;20518;-49
2022/07/29 12:25:58;;;;;;;3.37;2.00;;;;;;;;;;5006805;28;20447;-48
2022/07/29 12:28:24;;;;;;;6.07;2.87;;;;;;;;;;5012646;28;20403;-51
2022/07/29 12:30:51;;;;;;;2.40;2.20;;;;;;;;;;5011294;28;20426;-51
2022/07/29 12:33:20;;;;;;;2.50;2.30;;;;;;;;;;5012435;28;20438;-50
2022/07/29 12:35:50;;;;;;;4.97;3.03;;;;;;;;;;5012305;28;20495;-50
2022/07/29 12:38:16;;;;;;;4.10;2.50;;;;;;;;;;5011463;28;20427;-54
2022/07/29 12:40:43;;;;;;;2.90;2.70;;;;;;;;;;5010105;28;20454;-51
2022/07/29 12:43:13;;;;;;;4.67;2.70;;;;;;;;;;5012135;28;20411;-52
2022/07/29 12:45:40;;;;;;;2.83;2.63;;;;;;;;;;5012423;28;20439;-50
2022/07/29 12:48:09;;;;;;;4.37;2.77;;;;;;;;;;5012665;28;20406;-49
2022/07/29 12:50:54;;;;;;;2.63;2.43;;;;;;;;;;5011590;28;20467;-51
2022/07/29 12:53:20;;;;;;;6.47;2.83;;;;;;;;;;5012239;28;20403;-50
2022/07/29 12:55:54;;;;;;;7.03;2.67;;;;;;;;;;5012673;28;20399;-51
2022/07/29 12:58:30;;;;;;;4.03;2.37;;;;;;;;;;5012971;28;20453;-51
2022/07/29 13:01:03;;;;;;;2.87;2.47;;;;;;;;;;5012240;28;20414;-52
2022/07/29 13:03:29;;;;;;;4.50;2.67;;;;;;;;;;5013953;28;20396;-51
2022/07/29 13:05:55;;;;;;;2.73;1.90;;;;;;;;;;5016819;28;20913;-50
2022/07/29 13:08:21;;;;;;;4.50;1.90;;;;;;;;;;5017143;28;20403;-50
2022/07/29 13:10:47;;;;;;;3.67;2.00;;;;;;;;;;5012388;28;20529;-50
2022/07/29 13:13:14;;;;;;;2.70;2.20;;;;;;;;;;5016628;28;20403;-52
2022/07/29 13:15:41;;;;;;;4.20;2.40;;;;;;;;;;5016143;28;20409;-50
2022/07/29 13:18:26;;;;;;;4.60;2.40;;;;;;;;;;5017626;28;20482;-50
2022/07/29 13:20:52;;;;;;;2.93;1.67;;;;;;;;;;5016402;28;20446;-51
2022/07/29 13:23:18;;;;;;;4.87;2.47;;;;;;;;;;5016042;28;20454;-52
2022/07/29 13:25:44;;;;;;;3.00;2.47;;;;;;;;;;5016858;28;20486;-51
2022/07/29 13:28:11;;;;;;;5.17;2.07;;;;;;;;;;5016668;28;20406;-52
2022/07/29 13:30:37;;;;;;;3.53;2.13;;;;;;;;;;5016120;28;20431;-50
2022/07/29 13:33:03;;;;;;;2.17;2.07;;;;;;;;;;5016948;28;20403;-50
2022/07/29 13:35:29;;;;;;;4.67;2.57;;;;;;;;;;5017021;28;20494;-51
2022/07/29 13:37:55;;;;;;;7.13;2.63;;;;;;;;;;5012864;28;20466;-51
2022/07/29 13:40:21;;;;;;;4.00;1.97;;;;;;;;;;5015249;28;20937;-52
2022/07/29 13:42:48;;;;;;;2.00;1.67;;;;;;;;;;5014228;28;20490;-52
2022/07/29 13:45:14;;;;;;;2.60;2.40;;;;;;;;;;5014442;28;20414;-52
2022/07/29 13:47:40;;;;;;;3.17;2.87;;;;;;;;;;5013871;28;20403;-52
2022/07/29 13:50:09;;;;;;;5.73;2.20;;;;;;;;;;5012887;28;20497;-53
2022/07/29 13:52:35;;;;;;;5.27;2.00;;;;;;;;;;5014836;28;20411;-53
2022/07/29 13:55:02;;;;;;;7.00;2.37;;;;;;;;;;5014043;28;20755;-53
2022/07/29 13:57:28;;;;;;;3.10;2.07;;;;;;;;;;5012766;28;20427;-53
2022/07/29 13:59:54;;;;;;;2.47;2.10;;;;;;;;;;5013037;28;20451;-53
2022/07/29 14:02:20;;;;;;;1.70;1.60;;;;;;;;;;5014322;28;20404;-52
2022/07/29 14:04:46;;;;;;;5.40;2.10;;;;;;;;;;5014131;28;20871;-54
2022/07/29 14:07:12;;;;;;;2.33;1.90;;;;;;;;;;5013309;28;20479;-53
2022/07/29 14:09:38;;;;;;;3.20;2.73;;;;;;;;;;5013191;28;21009;-52
2022/07/29 14:12:04;;;;;;;2.67;2.40;;;;;;;;;;5013624;28;20423;-52
2022/07/29 14:14:32;;;;;;;2.70;1.80;;;;;;;;;;5014365;28;20812;-53
2022/07/29 14:16:58;;;;;;;3.30;2.83;;;;;;;;;;5008981;28;20426;-51
2022/07/29 14:19:24;;;;;;;2.43;2.10;;;;;;;;;;4993826;28;20919;-51
2022/07/29 14:21:49;;;;;;;2.00;1.77;;;;;;;;;;4993197;28;20459;-51
2022/07/29 14:24:15;;;;;;;2.10;1.90;;;;;;;;;;4994054;28;20427;-52
2022/07/29 14:26:41;;;;;;;4.70;2.50;;;;;;;;;;4993948;28;20970;-53
2022/07/29 14:29:07;;;;;;;1.80;1.70;;;;;;;;;;4993692;28;20412;-53
2022/07/29 14:31:33;;;;;;;4.27;1.90;;;;;;;;;;4992772;28;20539;-53
2022/07/29 14:33:59;;;;;;;2.47;2.00;;;;;;;;;;4993814;28;20419;-53
2022/07/29 14:36:27;;;;;;;3.77;2.20;;;;;;;;;;4993789;28;20407;-53
2022/07/29 14:38:53;;;;;;;3.33;1.93;;;;;;;;;;5004204;28;20455;-53
2022/07/29 14:41:19;;;;;;;4.00;3.07;;;;;;;;;;5011938;28;20450;-51
2022/07/29 14:43:45;;;;;;;2.20;2.00;;;;;;;;;;5013543;28;20403;-51
2022/07/29 14:46:11;;;;;;;4.00;2.40;;;;;;;;;;5012987;28;20406;-51
2022/07/29 14:48:37;;;;;;;4.83;2.60;;;;;;;;;;5013184;28;20395;-52
2022/07/29 14:51:03;;;;;;;3.57;2.40;;;;;;;;;;5012026;28;20458;-51
2022/07/29 14:53:29;;;;;;;5.37;2.30;;;;;;;;;;5013121;28;20431;-51
2022/07/29 14:55:55;;;;;;;2.30;2.10;;;;;;;;;;5012927;28;20405;-51